Terminal Aerodrome Forecast
Issued by NWS Grand Forks, ND

Home | Current Version | Previous Version | Text Only | Print | Product List | Glossary On
Versions: 1 2 3 4 5 6 7 8 9 10 11 12 13 14 15 16
000
FTUS43 KFGF 260500
TAFGFK
TAF
KGFK 260520Z 2606/2706 VRB06KT P6SM SKC
     FM261500 26010G20KT P6SM SCT150
     FM262000 27019G26KT P6SM VCSH BKN060
     FM270100 29011KT P6SM OVC040=

USA.gov is the U.S. government's official web portal to all federal, state and local government web resources and services.